Time,TemperatureF,DewpointF,PressureIn,WindDirection,WindDirectionDegrees,WindSpeedMPH,WindSpeedGustMPH,Humidity,HourlyPrecipIn,Conditions,Clouds,dailyrainin,SolarRadiationWatts/m^2,SoftwareType,DateUTC
2013-06-19 00:01:00,45.0,34.0,-100.00,WSW,258,2.0,6.0,66,0.00,,,0.00,0.000000,,2013-06-19 07:01:00,
2013-06-19 00:11:00,45.0,34.0,-100.00,WSW,258,2.0,6.0,66,0.00,,,0.00,0.000000,,2013-06-19 07:11:00,
2013-06-19 00:22:00,45.0,34.0,-100.00,WSW,258,2.0,6.0,66,0.00,,,0.00,0.000000,,2013-06-19 07:22:00,
2013-06-19 00:31:00,46.0,35.0,-100.00,WSW,252,2.0,11.0,66,0.00,,,0.00,0.000000,,2013-06-19 07:31:00,
2013-06-19 01:02:00,46.0,35.0,-100.00,WSW,252,2.0,11.0,66,0.00,,,0.00,0.000000,,2013-06-19 08:02:00,
2013-06-19 01:11:00,46.0,35.0,-100.00,WSW,252,2.0,11.0,66,0.00,,,0.00,0.000000,,2013-06-19 08:11:00,
2013-06-19 01:22:00,46.0,35.0,-100.00,WSW,252,2.0,11.0,66,0.00,,,0.00,0.000000,,2013-06-19 08:22:00,
2013-06-19 01:31:00,45.0,37.0,-100.00,SW,230,2.0,4.0,73,0.00,,,0.00,0.000000,,2013-06-19 08:31:00,
2013-06-19 01:53:00,45.0,37.0,-100.00,SW,230,2.0,4.0,73,0.00,,,0.00,0.000000,,2013-06-19 08:53:00,
2013-06-19 02:02:00,45.0,37.0,-100.00,SW,230,2.0,4.0,73,0.00,,,0.00,0.000000,,2013-06-19 09:02:00,
2013-06-19 02:11:00,45.0,37.0,-100.00,SW,230,2.0,4.0,73,0.00,,,0.00,0.000000,,2013-06-19 09:11:00,
2013-06-19 02:22:00,45.0,37.0,-100.00,SW,230,2.0,4.0,73,0.00,,,0.00,0.000000,,2013-06-19 09:22:00,
2013-06-19 02:31:00,46.0,35.0,-100.00,SW,217,5.0,12.0,66,0.00,,,0.00,0.000000,,2013-06-19 09:31:00,
2013-06-19 03:01:00,46.0,35.0,-100.00,SW,217,5.0,12.0,66,0.00,,,0.00,0.000000,,2013-06-19 10:01:00,
2013-06-19 03:11:00,46.0,35.0,-100.00,SW,217,5.0,12.0,66,0.00,,,0.00,0.000000,,2013-06-19 10:11:00,
2013-06-19 03:22:00,46.0,35.0,-100.00,SW,217,5.0,12.0,66,0.00,,,0.00,0.000000,,2013-06-19 10:22:00,
2013-06-19 03:31:00,45.0,34.0,-100.00,West,263,3.0,11.0,65,0.00,,,0.00,0.000000,,2013-06-19 10:31:00,
2013-06-19 03:53:00,45.0,34.0,-100.00,West,263,3.0,11.0,65,0.00,,,0.00,0.000000,,2013-06-19 10:53:00,
2013-06-19 04:02:00,45.0,34.0,-100.00,West,263,3.0,11.0,65,0.00,,,0.00,0.000000,,2013-06-19 11:02:00,
2013-06-19 04:11:00,45.0,34.0,-100.00,West,263,3.0,11.0,65,0.00,,,0.00,0.000000,,2013-06-19 11:11:00,
2013-06-19 04:22:00,45.0,34.0,-100.00,West,263,3.0,11.0,65,0.00,,,0.00,0.000000,,2013-06-19 11:22:00,
2013-06-19 04:31:00,45.0,36.0,-100.00,SSW,213,5.0,13.0,70,0.00,,,0.00,0.000000,,2013-06-19 11:31:00,
2013-06-19 05:01:00,45.0,36.0,-100.00,SSW,213,5.0,13.0,70,0.00,,,0.00,0.000000,,2013-06-19 12:01:00,
2013-06-19 05:11:00,45.0,36.0,-100.00,SSW,213,5.0,13.0,70,0.00,,,0.00,0.000000,,2013-06-19 12:11:00,
2013-06-19 05:22:00,45.0,36.0,-100.00,SSW,213,5.0,13.0,70,0.00,,,0.00,0.000000,,2013-06-19 12:22:00,
2013-06-19 05:31:00,45.0,37.0,-100.00,WSW,254,4.0,9.0,72,0.00,,,0.00,0.000000,,2013-06-19 12:31:00,
2013-06-19 06:02:00,45.0,37.0,-100.00,WSW,254,4.0,9.0,72,0.00,,,0.00,0.000000,,2013-06-19 13:02:00,
2013-06-19 06:11:00,45.0,37.0,-100.00,WSW,254,4.0,9.0,72,0.00,,,0.00,0.000000,,2013-06-19 13:11:00,
2013-06-19 06:22:00,45.0,37.0,-100.00,WSW,254,4.0,9.0,72,0.00,,,0.00,0.000000,,2013-06-19 13:22:00,
2013-06-19 06:31:00,44.0,34.0,-100.00,WSW,251,4.0,9.0,67,0.00,,,-99.99,17.000000,,2013-06-19 13:31:00,
2013-06-19 07:02:00,44.0,34.0,-100.00,WSW,251,4.0,9.0,67,0.00,,,-99.99,17.000000,,2013-06-19 14:02:00,
2013-06-19 07:11:00,44.0,34.0,-100.00,WSW,251,4.0,9.0,67,0.00,,,-99.99,17.000000,,2013-06-19 14:11:00,
2013-06-19 07:22:00,44.0,34.0,-100.00,WSW,251,4.0,9.0,67,0.00,,,-99.99,17.000000,,2013-06-19 14:22:00,
2013-06-19 07:31:00,46.0,37.0,-100.00,SSW,210,5.0,11.0,71,0.00,,,0.00,81.000000,,2013-06-19 14:31:00,
2013-06-19 07:53:00,46.0,37.0,-100.00,SSW,210,5.0,11.0,71,0.00,,,0.00,81.000000,,2013-06-19 14:53:00,
2013-06-19 08:01:00,46.0,37.0,-100.00,SSW,210,5.0,11.0,71,0.00,,,0.00,81.000000,,2013-06-19 15:01:00,
2013-06-19 08:11:00,46.0,37.0,-100.00,SSW,210,5.0,11.0,71,0.00,,,0.00,81.000000,,2013-06-19 15:11:00,
2013-06-19 08:22:00,46.0,37.0,-100.00,SSW,210,5.0,11.0,71,0.00,,,0.00,81.000000,,2013-06-19 15:22:00,
2013-06-19 08:31:00,50.0,38.0,-100.00,SW,228,6.0,14.0,63,0.00,,,0.00,255.000000,,2013-06-19 15:31:00,
2013-06-19 08:53:00,50.0,38.0,-100.00,SW,228,6.0,14.0,63,0.00,,,0.00,255.000000,,2013-06-19 15:53:00,
2013-06-19 09:01:00,50.0,38.0,-100.00,SW,228,6.0,14.0,63,0.00,,,0.00,255.000000,,2013-06-19 16:01:00,
2013-06-19 09:11:00,50.0,38.0,-100.00,SW,228,6.0,14.0,63,0.00,,,0.00,255.000000,,2013-06-19 16:11:00,
2013-06-19 09:22:00,50.0,38.0,-100.00,SW,228,6.0,14.0,63,0.00,,,0.00,255.000000,,2013-06-19 16:22:00,
2013-06-19 09:31:00,49.0,36.0,-100.00,SW,216,8.0,18.0,60,0.00,,,0.00,329.000000,,2013-06-19 16:31:00,
2013-06-19 10:02:00,49.0,36.0,-100.00,SW,216,8.0,18.0,60,0.00,,,0.00,329.000000,,2013-06-19 17:02:00,
2013-06-19 10:11:00,49.0,36.0,-100.00,SW,216,8.0,18.0,60,0.00,,,0.00,329.000000,,2013-06-19 17:11:00,
2013-06-19 10:22:00,49.0,36.0,-100.00,SW,216,8.0,18.0,60,0.00,,,0.00,329.000000,,2013-06-19 17:22:00,
2013-06-19 10:31:00,51.0,36.0,-100.00,SW,226,8.0,20.0,57,0.00,,,0.00,409.000000,,2013-06-19 17:31:00,
2013-06-19 10:53:00,51.0,36.0,-100.00,SW,226,8.0,20.0,57,0.00,,,0.00,409.000000,,2013-06-19 17:53:00,
2013-06-19 11:01:00,51.0,36.0,-100.00,SW,226,8.0,20.0,57,0.00,,,0.00,409.000000,,2013-06-19 18:01:00,
2013-06-19 11:11:00,51.0,36.0,-100.00,SW,226,8.0,20.0,57,0.00,,,0.00,409.000000,,2013-06-19 18:11:00,
2013-06-19 11:23:00,51.0,36.0,-100.00,SW,226,8.0,20.0,57,0.00,,,0.00,409.000000,,2013-06-19 18:23:00,
2013-06-19 11:31:00,56.0,36.0,-100.00,WSW,245,9.0,20.0,47,0.00,,,0.00,759.000000,,2013-06-19 18:31:00,
2013-06-19 12:01:00,56.0,36.0,-100.00,WSW,245,9.0,20.0,47,0.00,,,0.00,759.000000,,2013-06-19 19:01:00,
2013-06-19 12:11:00,56.0,36.0,-100.00,WSW,245,9.0,20.0,47,0.00,,,0.00,759.000000,,2013-06-19 19:11:00,
2013-06-19 12:22:00,56.0,36.0,-100.00,WSW,245,9.0,20.0,47,0.00,,,0.00,759.000000,,2013-06-19 19:22:00,
2013-06-19 12:31:00,56.0,36.0,-100.00,WSW,239,10.0,20.0,47,0.00,,,0.00,901.000000,,2013-06-19 19:31:00,
2013-06-19 12:53:00,56.0,36.0,-100.00,WSW,239,10.0,20.0,47,0.00,,,0.00,901.000000,,2013-06-19 19:53:00,
2013-06-19 13:02:00,56.0,36.0,-100.00,WSW,239,10.0,20.0,47,0.00,,,0.00,901.000000,,2013-06-19 20:02:00,
2013-06-19 13:11:00,56.0,36.0,-100.00,WSW,239,10.0,20.0,47,0.00,,,0.00,901.000000,,2013-06-19 20:11:00,
2013-06-19 13:22:00,56.0,36.0,-100.00,WSW,239,10.0,20.0,47,0.00,,,0.00,901.000000,,2013-06-19 20:22:00,
2013-06-19 13:31:00,58.0,37.0,-100.00,WSW,247,9.0,20.0,46,0.00,,,0.00,999.000000,,2013-06-19 20:31:00,
2013-06-19 14:02:00,58.0,37.0,-100.00,WSW,247,9.0,20.0,46,0.00,,,0.00,999.000000,,2013-06-19 21:02:00,
2013-06-19 14:11:00,58.0,37.0,-100.00,WSW,247,9.0,20.0,46,0.00,,,0.00,999.000000,,2013-06-19 21:11:00,
2013-06-19 14:22:00,58.0,37.0,-100.00,WSW,247,9.0,20.0,46,0.00,,,0.00,999.000000,,2013-06-19 21:22:00,
2013-06-19 14:31:00,57.0,36.0,-100.00,SW,225,10.0,22.0,46,0.00,,,0.00,880.000000,,2013-06-19 21:31:00,
2013-06-19 15:01:00,57.0,36.0,-100.00,SW,225,10.0,22.0,46,0.00,,,0.00,880.000000,,2013-06-19 22:01:00,
2013-06-19 15:11:00,57.0,36.0,-100.00,SW,225,10.0,22.0,46,0.00,,,0.00,880.000000,,2013-06-19 22:11:00,
2013-06-19 15:22:00,57.0,36.0,-100.00,SW,225,10.0,22.0,46,0.00,,,0.00,880.000000,,2013-06-19 22:22:00,
2013-06-19 15:31:00,54.0,36.0,-100.00,WSW,240,11.0,25.0,51,0.00,,,0.00,693.000000,,2013-06-19 22:31:00,
2013-06-19 15:53:00,54.0,36.0,-100.00,WSW,240,11.0,25.0,51,0.00,,,0.00,693.000000,,2013-06-19 22:53:00,
2013-06-19 16:02:00,54.0,36.0,-100.00,WSW,240,11.0,25.0,51,0.00,,,0.00,693.000000,,2013-06-19 23:02:00,
2013-06-19 16:12:00,54.0,36.0,-100.00,WSW,240,11.0,25.0,51,0.00,,,0.00,693.000000,,2013-06-19 23:12:00,
2013-06-19 16:23:00,54.0,36.0,-100.00,WSW,240,11.0,25.0,51,0.00,,,0.00,693.000000,,2013-06-19 23:23:00,
2013-06-19 16:31:00,56.0,38.0,-100.00,SW,226,9.0,23.0,51,0.00,,,0.00,729.000000,,2013-06-19 23:31:00,
2013-06-19 17:01:00,56.0,38.0,-100.00,SW,226,9.0,23.0,51,0.00,,,0.00,729.000000,,2013-06-20 00:01:00,
2013-06-19 17:11:00,56.0,38.0,-100.00,SW,226,9.0,23.0,51,0.00,,,0.00,729.000000,,2013-06-20 00:11:00,
2013-06-19 17:22:00,56.0,38.0,-100.00,SW,226,9.0,23.0,51,0.00,,,0.00,729.000000,,2013-06-20 00:22:00,
2013-06-19 17:31:00,56.0,37.0,-100.00,SW,232,9.0,19.0,49,0.00,,,0.00,557.000000,,2013-06-20 00:31:00,
2013-06-19 18:02:00,56.0,37.0,-100.00,SW,232,9.0,19.0,49,0.00,,,0.00,557.000000,,2013-06-20 01:02:00,
2013-06-19 18:11:00,56.0,37.0,-100.00,SW,232,9.0,19.0,49,0.00,,,0.00,557.000000,,2013-06-20 01:11:00,
2013-06-19 18:22:00,56.0,37.0,-100.00,SW,232,9.0,19.0,49,0.00,,,0.00,557.000000,,2013-06-20 01:22:00,
2013-06-19 18:31:00,53.0,36.0,-100.00,SW,220,9.0,25.0,52,0.00,,,0.00,415.000000,,2013-06-20 01:31:00,
2013-06-19 19:02:00,53.0,36.0,-100.00,SW,220,9.0,25.0,52,0.00,,,0.00,415.000000,,2013-06-20 02:02:00,
2013-06-19 19:11:00,53.0,36.0,-100.00,SW,220,9.0,25.0,52,0.00,,,0.00,415.000000,,2013-06-20 02:11:00,
2013-06-19 19:24:00,53.0,36.0,-100.00,SW,220,9.0,25.0,52,0.00,,,0.00,415.000000,,2013-06-20 02:24:00,
2013-06-19 19:31:00,49.0,34.0,-100.00,SW,229,9.0,20.0,56,0.00,,,0.00,159.000000,,2013-06-20 02:31:00,
2013-06-19 20:02:00,49.0,34.0,-100.00,SW,229,9.0,20.0,56,0.00,,,0.00,159.000000,,2013-06-20 03:02:00,
2013-06-19 20:11:00,49.0,34.0,-100.00,SW,229,9.0,20.0,56,0.00,,,0.00,159.000000,,2013-06-20 03:11:00,
2013-06-19 20:22:00,49.0,34.0,-100.00,SW,229,9.0,20.0,56,0.00,,,0.00,159.000000,,2013-06-20 03:22:00,
2013-06-19 20:31:00,47.0,35.0,-100.00,WSW,243,9.0,18.0,62,0.00,,,0.00,19.000000,,2013-06-20 03:31:00,
2013-06-19 20:54:00,47.0,35.0,-100.00,WSW,243,9.0,18.0,62,0.00,,,0.00,19.000000,,2013-06-20 03:54:00,
2013-06-19 21:01:00,47.0,35.0,-100.00,WSW,243,9.0,18.0,62,0.00,,,0.00,19.000000,,2013-06-20 04:01:00,
2013-06-19 21:11:00,47.0,35.0,-100.00,WSW,243,9.0,18.0,62,0.00,,,0.00,19.000000,,2013-06-20 04:11:00,
2013-06-19 21:22:00,47.0,35.0,-100.00,WSW,243,9.0,18.0,62,0.00,,,0.00,19.000000,,2013-06-20 04:22:00,
2013-06-19 21:31:00,46.0,36.0,-100.00,SW,218,7.0,15.0,67,0.00,,,0.00,3.000000,,2013-06-20 04:31:00,
2013-06-19 21:54:00,46.0,36.0,-100.00,SW,218,7.0,15.0,67,0.00,,,0.00,3.000000,,2013-06-20 04:54:00,
2013-06-19 22:02:00,46.0,36.0,-100.00,SW,218,7.0,15.0,67,0.00,,,0.00,3.000000,,2013-06-20 05:02:00,
2013-06-19 22:12:00,46.0,36.0,-100.00,SW,218,7.0,15.0,67,0.00,,,0.00,3.000000,,2013-06-20 05:12:00,
2013-06-19 22:22:00,46.0,36.0,-100.00,SW,218,7.0,15.0,67,0.00,,,0.00,3.000000,,2013-06-20 05:22:00,
2013-06-19 22:31:00,45.0,35.0,-100.00,SSW,211,6.0,13.0,67,0.00,,,0.00,0.000000,,2013-06-20 05:31:00,
2013-06-19 23:01:00,45.0,35.0,-100.00,SSW,211,6.0,13.0,67,0.00,,,0.00,0.000000,,2013-06-20 06:01:00,
2013-06-19 23:11:00,45.0,35.0,-100.00,SSW,211,6.0,13.0,67,0.00,,,0.00,0.000000,,2013-06-20 06:11:00,
2013-06-19 23:22:00,45.0,35.0,-100.00,SSW,211,6.0,13.0,67,0.00,,,0.00,0.000000,,2013-06-20 06:22:00,
2013-06-19 23:31:00,45.0,37.0,-100.00,SSW,198,6.0,11.0,73,0.00,,,0.00,0.000000,,2013-06-20 06:31:00,